sensor_id;sensor_type;location;lat;lon;timestamp;temperature;humidity
19829;DHT22;10075;50.924;4.396;2022-10-31T00:00:08;15.70;99.90
19829;DHT22;10075;50.924;4.396;2022-10-31T00:02:35;15.70;99.90
19829;DHT22;10075;50.924;4.396;2022-10-31T00:05:02;15.70;99.90
19829;DHT22;10075;50.924;4.396;2022-10-31T00:07:29;15.60;99.90
19829;DHT22;10075;50.924;4.396;2022-10-31T00:09:56;15.60;99.90
19829;DHT22;10075;50.924;4.396;2022-10-31T00:12:26;15.60;99.90
19829;DHT22;10075;50.924;4.396;2022-10-31T00:14:54;15.50;99.90
19829;DHT22;10075;50.924;4.396;2022-10-31T00:17:21;15.50;99.90
19829;DHT22;10075;50.924;4.396;2022-10-31T00:19:48;15.40;99.90
19829;DHT22;10075;50.924;4.396;2022-10-31T00:22:15;15.40;99.90
19829;DHT22;10075;50.924;4.396;2022-10-31T00:24:42;15.30;99.90
19829;DHT22;10075;50.924;4.396;2022-10-31T00:27:09;15.30;99.90
19829;DHT22;10075;50.924;4.396;2022-10-31T00:29:36;15.20;99.90
19829;DHT22;10075;50.924;4.396;2022-10-31T00:32:04;15.20;99.90
19829;DHT22;10075;50.924;4.396;2022-10-31T00:34:31;15.10;99.90
19829;DHT22;10075;50.924;4.396;2022-10-31T00:36:58;15.00;99.90
19829;DHT22;10075;50.924;4.396;2022-10-31T00:39:25;15.00;99.90
19829;DHT22;10075;50.924;4.396;2022-10-31T00:41:52;14.90;99.90
19829;DHT22;10075;50.924;4.396;2022-10-31T00:44:19;14.80;99.90
19829;DHT22;10075;50.924;4.396;2022-10-31T00:46:46;14.70;99.90
19829;DHT22;10075;50.924;4.396;2022-10-31T00:49:14;14.70;99.90
19829;DHT22;10075;50.924;4.396;2022-10-31T00:51:41;14.60;99.90
19829;DHT22;10075;50.924;4.396;2022-10-31T00:54:08;14.60;99.90
19829;DHT22;10075;50.924;4.396;2022-10-31T00:56:35;14.50;99.90
19829;DHT22;10075;50.924;4.396;2022-10-31T00:59:02;14.40;99.90
19829;DHT22;10075;50.924;4.396;2022-10-31T01:01:29;14.40;99.90
19829;DHT22;10075;50.924;4.396;2022-10-31T01:03:56;14.30;99.90
19829;DHT22;10075;50.924;4.396;2022-10-31T01:06:25;14.30;99.90
19829;DHT22;10075;50.924;4.396;2022-10-31T01:08:52;14.20;99.90
19829;DHT22;10075;50.924;4.396;2022-10-31T01:11:21;14.20;99.90
19829;DHT22;10075;50.924;4.396;2022-10-31T01:13:50;14.10;99.90
19829;DHT22;10075;50.924;4.396;2022-10-31T01:16:20;14.10;99.90
19829;DHT22;10075;50.924;4.396;2022-10-31T01:18:48;14.00;99.90
19829;DHT22;10075;50.924;4.396;2022-10-31T01:21:16;14.00;99.90
19829;DHT22;10075;50.924;4.396;2022-10-31T01:23:45;14.00;99.90
19829;DHT22;10075;50.924;4.396;2022-10-31T01:26:14;14.00;99.90
19829;DHT22;10075;50.924;4.396;2022-10-31T01:28:44;14.00;99.90
19829;DHT22;10075;50.924;4.396;2022-10-31T01:31:12;14.00;99.90
19829;DHT22;10075;50.924;4.396;2022-10-31T01:33:39;14.00;99.90
19829;DHT22;10075;50.924;4.396;2022-10-31T01:36:15;13.90;99.90
19829;DHT22;10075;50.924;4.396;2022-10-31T01:38:42;13.90;99.90
19829;DHT22;10075;50.924;4.396;2022-10-31T01:41:12;13.80;99.90
19829;DHT22;10075;50.924;4.396;2022-10-31T01:43:48;13.80;99.90
19829;DHT22;10075;50.924;4.396;2022-10-31T01:46:18;13.80;99.90
19829;DHT22;10075;50.924;4.396;2022-10-31T01:48:46;13.70;99.90
19829;DHT22;10075;50.924;4.396;2022-10-31T01:51:14;13.70;99.90
19829;DHT22;10075;50.924;4.396;2022-10-31T01:53:44;13.70;99.90
19829;DHT22;10075;50.924;4.396;2022-10-31T01:56:14;13.70;99.90
19829;DHT22;10075;50.924;4.396;2022-10-31T01:58:42;13.70;99.90
19829;DHT22;10075;50.924;4.396;2022-10-31T02:01:09;13.60;99.90
19829;DHT22;10075;50.924;4.396;2022-10-31T02:03:36;13.50;99.90
19829;DHT22;10075;50.924;4.396;2022-10-31T02:06:05;13.70;99.90
19829;DHT22;10075;50.924;4.396;2022-10-31T02:08:34;13.70;99.90
19829;DHT22;10075;50.924;4.396;2022-10-31T02:11:01;13.70;99.90
19829;DHT22;10075;50.924;4.396;2022-10-31T02:13:30;13.60;99.90
19829;DHT22;10075;50.924;4.396;2022-10-31T02:15:58;13.70;99.90
19829;DHT22;10075;50.924;4.396;2022-10-31T02:18:27;13.60;99.90
19829;DHT22;10075;50.924;4.396;2022-10-31T02:21:01;13.60;99.90
19829;DHT22;10075;50.924;4.396;2022-10-31T02:26:52;13.40;99.90
19829;DHT22;10075;50.924;4.396;2022-10-31T02:32:37;13.20;99.90
19829;DHT22;10075;50.924;4.396;2022-10-31T02:35:11;13.20;99.90
19829;DHT22;10075;50.924;4.396;2022-10-31T02:37:47;13.20;99.90
19829;DHT22;10075;50.924;4.396;2022-10-31T02:40:21;13.10;99.90
19829;DHT22;10075;50.924;4.396;2022-10-31T02:42:53;13.10;99.90
19829;DHT22;10075;50.924;4.396;2022-10-31T02:45:28;13.00;99.90
19829;DHT22;10075;50.924;4.396;2022-10-31T02:48:00;13.00;99.90
19829;DHT22;10075;50.924;4.396;2022-10-31T02:50:32;12.90;99.90
19829;DHT22;10075;50.924;4.396;2022-10-31T02:53:01;12.90;99.90
19829;DHT22;10075;50.924;4.396;2022-10-31T02:55:47;12.90;99.90
19829;DHT22;10075;50.924;4.396;2022-10-31T02:58:19;12.80;99.90
19829;DHT22;10075;50.924;4.396;2022-10-31T03:03:44;12.80;99.90
19829;DHT22;10075;50.924;4.396;2022-10-31T03:06:24;12.80;99.90
19829;DHT22;10075;50.924;4.396;2022-10-31T03:08:59;12.80;99.90
19829;DHT22;10075;50.924;4.396;2022-10-31T03:11:31;12.70;99.90
19829;DHT22;10075;50.924;4.396;2022-10-31T03:14:04;12.70;99.90
19829;DHT22;10075;50.924;4.396;2022-10-31T03:16:39;12.70;99.90
19829;DHT22;10075;50.924;4.396;2022-10-31T03:19:11;12.60;99.90
19829;DHT22;10075;50.924;4.396;2022-10-31T03:21:42;12.60;99.90
19829;DHT22;10075;50.924;4.396;2022-10-31T03:24:11;12.50;99.90
19829;DHT22;10075;50.924;4.396;2022-10-31T03:26:42;12.50;99.90
19829;DHT22;10075;50.924;4.396;2022-10-31T03:29:14;12.50;99.90
19829;DHT22;10075;50.924;4.396;2022-10-31T03:31:45;12.40;99.90
19829;DHT22;10075;50.924;4.396;2022-10-31T03:34:19;12.40;99.90
19829;DHT22;10075;50.924;4.396;2022-10-31T03:36:49;12.40;99.90
19829;DHT22;10075;50.924;4.396;2022-10-31T03:39:19;12.40;99.90
19829;DHT22;10075;50.924;4.396;2022-10-31T03:41:52;12.40;99.90
19829;DHT22;10075;50.924;4.396;2022-10-31T03:44:21;12.40;99.90
19829;DHT22;10075;50.924;4.396;2022-10-31T03:46:49;12.30;99.90
19829;DHT22;10075;50.924;4.396;2022-10-31T03:49:17;12.20;99.90
19829;DHT22;10075;50.924;4.396;2022-10-31T03:51:47;12.20;99.90
19829;DHT22;10075;50.924;4.396;2022-10-31T03:54:22;12.20;99.90
19829;DHT22;10075;50.924;4.396;2022-10-31T03:56:52;12.20;99.90
19829;DHT22;10075;50.924;4.396;2022-10-31T03:59:24;12.20;99.90
19829;DHT22;10075;50.924;4.396;2022-10-31T04:01:57;12.10;99.90
19829;DHT22;10075;50.924;4.396;2022-10-31T04:04:27;12.10;99.90
19829;DHT22;10075;50.924;4.396;2022-10-31T04:06:57;12.10;99.90
19829;DHT22;10075;50.924;4.396;2022-10-31T04:09:25;12.00;99.90
19829;DHT22;10075;50.924;4.396;2022-10-31T04:11:56;12.00;99.90
19829;DHT22;10075;50.924;4.396;2022-10-31T04:14:26;12.00;99.90
19829;DHT22;10075;50.924;4.396;2022-10-31T04:16:54;12.00;99.90
19829;DHT22;10075;50.924;4.396;2022-10-31T04:19:21;12.00;99.90
19829;DHT22;10075;50.924;4.396;2022-10-31T04:21:49;11.90;99.90
19829;DHT22;10075;50.924;4.396;2022-10-31T04:24:16;11.90;99.90
19829;DHT22;10075;50.924;4.396;2022-10-31T04:26:43;11.90;99.90
19829;DHT22;10075;50.924;4.396;2022-10-31T04:29:10;11.90;99.90
19829;DHT22;10075;50.924;4.396;2022-10-31T04:31:37;11.90;99.90
19829;DHT22;10075;50.924;4.396;2022-10-31T04:34:04;11.90;99.90
19829;DHT22;10075;50.924;4.396;2022-10-31T04:36:31;11.90;99.90
19829;DHT22;10075;50.924;4.396;2022-10-31T04:38:59;11.80;99.90
19829;DHT22;10075;50.924;4.396;2022-10-31T04:41:26;11.80;99.90
19829;DHT22;10075;50.924;4.396;2022-10-31T04:43:53;11.80;99.90
19829;DHT22;10075;50.924;4.396;2022-10-31T04:46:20;11.80;99.90
19829;DHT22;10075;50.924;4.396;2022-10-31T04:48:47;11.80;99.90
19829;DHT22;10075;50.924;4.396;2022-10-31T04:51:15;11.80;99.90
19829;DHT22;10075;50.924;4.396;2022-10-31T04:53:41;11.80;99.90
19829;DHT22;10075;50.924;4.396;2022-10-31T04:56:10;11.80;99.90
19829;DHT22;10075;50.924;4.396;2022-10-31T04:58:37;11.80;99.90
19829;DHT22;10075;50.924;4.396;2022-10-31T05:01:03;11.80;99.90
19829;DHT22;10075;50.924;4.396;2022-10-31T05:03:30;11.80;99.90
19829;DHT22;10075;50.924;4.396;2022-10-31T05:05:57;11.80;99.90
19829;DHT22;10075;50.924;4.396;2022-10-31T05:08:24;11.90;99.90
19829;DHT22;10075;50.924;4.396;2022-10-31T05:10:51;11.90;99.90
19829;DHT22;10075;50.924;4.396;2022-10-31T05:13:20;11.90;99.90
19829;DHT22;10075;50.924;4.396;2022-10-31T05:15:46;11.90;99.90
19829;DHT22;10075;50.924;4.396;2022-10-31T05:18:13;11.90;99.90
19829;DHT22;10075;50.924;4.396;2022-10-31T05:20:40;12.00;99.90
19829;DHT22;10075;50.924;4.396;2022-10-31T05:23:07;12.00;99.90
19829;DHT22;10075;50.924;4.396;2022-10-31T05:25:34;12.00;99.90
19829;DHT22;10075;50.924;4.396;2022-10-31T05:28:01;12.10;99.90
19829;DHT22;10075;50.924;4.396;2022-10-31T05:30:31;12.20;99.90
19829;DHT22;10075;50.924;4.396;2022-10-31T05:32:59;12.20;99.90
19829;DHT22;10075;50.924;4.396;2022-10-31T05:35:27;12.20;99.90
19829;DHT22;10075;50.924;4.396;2022-10-31T05:37:55;12.30;99.90
19829;DHT22;10075;50.924;4.396;2022-10-31T05:40:23;12.30;99.90
19829;DHT22;10075;50.924;4.396;2022-10-31T05:42:52;12.30;99.90
19829;DHT22;10075;50.924;4.396;2022-10-31T05:45:21;12.30;99.90
19829;DHT22;10075;50.924;4.396;2022-10-31T05:47:53;12.30;99.90
19829;DHT22;10075;50.924;4.396;2022-10-31T05:50:21;12.40;99.90
19829;DHT22;10075;50.924;4.396;2022-10-31T05:52:54;12.30;99.90
19829;DHT22;10075;50.924;4.396;2022-10-31T05:55:21;12.40;99.90
19829;DHT22;10075;50.924;4.396;2022-10-31T05:57:48;12.40;99.90
19829;DHT22;10075;50.924;4.396;2022-10-31T06:00:15;12.50;99.90
19829;DHT22;10075;50.924;4.396;2022-10-31T06:02:42;12.50;99.90
19829;DHT22;10075;50.924;4.396;2022-10-31T06:05:10;12.60;99.90
19829;DHT22;10075;50.924;4.396;2022-10-31T06:07:37;12.70;99.90
19829;DHT22;10075;50.924;4.396;2022-10-31T06:10:06;12.70;99.90
19829;DHT22;10075;50.924;4.396;2022-10-31T06:12:34;12.70;99.90
19829;DHT22;10075;50.924;4.396;2022-10-31T06:15:03;12.80;99.90
19829;DHT22;10075;50.924;4.396;2022-10-31T06:17:31;12.80;99.90
19829;DHT22;10075;50.924;4.396;2022-10-31T06:19:58;12.90;99.90
19829;DHT22;10075;50.924;4.396;2022-10-31T06:22:27;13.00;99.90
19829;DHT22;10075;50.924;4.396;2022-10-31T06:24:53;13.00;99.90
19829;DHT22;10075;50.924;4.396;2022-10-31T06:27:20;13.10;99.90
19829;DHT22;10075;50.924;4.396;2022-10-31T06:29:47;13.20;99.90
19829;DHT22;10075;50.924;4.396;2022-10-31T06:32:14;13.20;99.90
19829;DHT22;10075;50.924;4.396;2022-10-31T06:34:42;13.20;99.90
19829;DHT22;10075;50.924;4.396;2022-10-31T06:37:10;13.20;99.90
19829;DHT22;10075;50.924;4.396;2022-10-31T06:39:39;13.30;99.90
19829;DHT22;10075;50.924;4.396;2022-10-31T06:42:06;13.30;99.90
19829;DHT22;10075;50.924;4.396;2022-10-31T06:44:33;13.30;99.90
19829;DHT22;10075;50.924;4.396;2022-10-31T06:47:00;13.30;99.90
19829;DHT22;10075;50.924;4.396;2022-10-31T06:49:27;13.30;99.90
19829;DHT22;10075;50.924;4.396;2022-10-31T06:51:54;13.40;99.90
19829;DHT22;10075;50.924;4.396;2022-10-31T06:54:21;13.40;99.90
19829;DHT22;10075;50.924;4.396;2022-10-31T06:56:49;13.50;99.90
19829;DHT22;10075;50.924;4.396;2022-10-31T06:59:16;13.50;99.90
19829;DHT22;10075;50.924;4.396;2022-10-31T07:01:43;13.60;99.90
19829;DHT22;10075;50.924;4.396;2022-10-31T07:04:10;13.70;99.90
19829;DHT22;10075;50.924;4.396;2022-10-31T07:06:38;13.70;99.90
19829;DHT22;10075;50.924;4.396;2022-10-31T07:09:05;13.70;99.90
19829;DHT22;10075;50.924;4.396;2022-10-31T07:11:32;13.80;99.90
19829;DHT22;10075;50.924;4.396;2022-10-31T07:14:00;13.90;99.90
19829;DHT22;10075;50.924;4.396;2022-10-31T07:16:27;14.00;99.90
19829;DHT22;10075;50.924;4.396;2022-10-31T07:18:54;14.00;99.90
19829;DHT22;10075;50.924;4.396;2022-10-31T07:21:21;14.00;99.90
19829;DHT22;10075;50.924;4.396;2022-10-31T07:23:48;14.00;99.90
19829;DHT22;10075;50.924;4.396;2022-10-31T07:26:15;14.00;99.90
19829;DHT22;10075;50.924;4.396;2022-10-31T07:28:42;14.10;99.90
19829;DHT22;10075;50.924;4.396;2022-10-31T07:31:10;14.20;99.90
19829;DHT22;10075;50.924;4.396;2022-10-31T07:33:37;14.20;99.90
19829;DHT22;10075;50.924;4.396;2022-10-31T07:36:05;14.20;99.90
19829;DHT22;10075;50.924;4.396;2022-10-31T07:38:32;14.30;99.90
19829;DHT22;10075;50.924;4.396;2022-10-31T07:40:59;14.40;99.90
19829;DHT22;10075;50.924;4.396;2022-10-31T07:43:26;14.40;99.90
19829;DHT22;10075;50.924;4.396;2022-10-31T07:45:53;14.50;99.90
19829;DHT22;10075;50.924;4.396;2022-10-31T07:48:21;14.60;99.90
19829;DHT22;10075;50.924;4.396;2022-10-31T07:50:48;14.60;99.90
19829;DHT22;10075;50.924;4.396;2022-10-31T07:53:16;14.60;99.90
19829;DHT22;10075;50.924;4.396;2022-10-31T07:55:43;14.70;99.90
19829;DHT22;10075;50.924;4.396;2022-10-31T07:58:11;14.70;99.90
19829;DHT22;10075;50.924;4.396;2022-10-31T08:00:40;14.60;99.90
19829;DHT22;10075;50.924;4.396;2022-10-31T08:03:08;14.60;99.90
19829;DHT22;10075;50.924;4.396;2022-10-31T08:05:37;14.70;99.90
19829;DHT22;10075;50.924;4.396;2022-10-31T08:08:05;14.80;99.90
19829;DHT22;10075;50.924;4.396;2022-10-31T08:10:33;14.90;99.90
19829;DHT22;10075;50.924;4.396;2022-10-31T08:13:02;15.00;99.90
19829;DHT22;10075;50.924;4.396;2022-10-31T08:15:29;15.10;99.90
19829;DHT22;10075;50.924;4.396;2022-10-31T08:17:57;15.10;99.90
19829;DHT22;10075;50.924;4.396;2022-10-31T08:20:24;15.20;99.90
19829;DHT22;10075;50.924;4.396;2022-10-31T08:22:56;15.30;99.90
19829;DHT22;10075;50.924;4.396;2022-10-31T08:25:25;15.40;99.90
19829;DHT22;10075;50.924;4.396;2022-10-31T08:27:53;15.40;99.90
19829;DHT22;10075;50.924;4.396;2022-10-31T08:30:21;15.50;99.90
19829;DHT22;10075;50.924;4.396;2022-10-31T08:32:57;15.60;99.90
19829;DHT22;10075;50.924;4.396;2022-10-31T08:35:24;15.60;99.90
19829;DHT22;10075;50.924;4.396;2022-10-31T08:37:52;15.60;99.90
19829;DHT22;10075;50.924;4.396;2022-10-31T08:40:21;15.60;99.90
19829;DHT22;10075;50.924;4.396;2022-10-31T08:42:55;15.70;99.90
19829;DHT22;10075;50.924;4.396;2022-10-31T08:45:23;15.70;99.90
19829;DHT22;10075;50.924;4.396;2022-10-31T08:47:50;15.70;99.90
19829;DHT22;10075;50.924;4.396;2022-10-31T08:50:17;15.70;99.90
19829;DHT22;10075;50.924;4.396;2022-10-31T08:52:44;15.70;99.90
19829;DHT22;10075;50.924;4.396;2022-10-31T08:55:11;15.70;99.90
19829;DHT22;10075;50.924;4.396;2022-10-31T08:57:39;15.80;99.90
19829;DHT22;10075;50.924;4.396;2022-10-31T09:00:07;15.80;99.90
19829;DHT22;10075;50.924;4.396;2022-10-31T09:02:34;15.90;99.90
19829;DHT22;10075;50.924;4.396;2022-10-31T09:05:02;16.00;99.90
19829;DHT22;10075;50.924;4.396;2022-10-31T09:07:30;16.00;99.90
19829;DHT22;10075;50.924;4.396;2022-10-31T09:09:57;16.10;99.90
19829;DHT22;10075;50.924;4.396;2022-10-31T09:12:24;16.20;99.90
19829;DHT22;10075;50.924;4.396;2022-10-31T09:14:52;16.30;99.90
19829;DHT22;10075;50.924;4.396;2022-10-31T09:17:19;16.30;99.90
19829;DHT22;10075;50.924;4.396;2022-10-31T09:19:46;16.30;99.90
19829;DHT22;10075;50.924;4.396;2022-10-31T09:22:14;16.30;99.90
19829;DHT22;10075;50.924;4.396;2022-10-31T09:24:41;16.40;99.90
19829;DHT22;10075;50.924;4.396;2022-10-31T09:27:07;16.50;99.90
19829;DHT22;10075;50.924;4.396;2022-10-31T09:29:35;16.60;99.90
19829;DHT22;10075;50.924;4.396;2022-10-31T09:32:03;16.70;99.90
19829;DHT22;10075;50.924;4.396;2022-10-31T09:34:30;16.80;99.90
19829;DHT22;10075;50.924;4.396;2022-10-31T09:36:57;16.80;99.90
19829;DHT22;10075;50.924;4.396;2022-10-31T09:39:24;16.70;99.90
19829;DHT22;10075;50.924;4.396;2022-10-31T09:42:09;16.70;99.90
19829;DHT22;10075;50.924;4.396;2022-10-31T09:44:47;16.60;99.90
19829;DHT22;10075;50.924;4.396;2022-10-31T09:47:26;16.50;99.90
19829;DHT22;10075;50.924;4.396;2022-10-31T09:50:07;16.60;99.90
19829;DHT22;10075;50.924;4.396;2022-10-31T09:52:41;16.60;99.90
19829;DHT22;10075;50.924;4.396;2022-10-31T09:55:13;16.70;99.90
19829;DHT22;10075;50.924;4.396;2022-10-31T09:57:42;16.80;99.90
19829;DHT22;10075;50.924;4.396;2022-10-31T10:00:15;16.90;99.90
19829;DHT22;10075;50.924;4.396;2022-10-31T10:02:47;17.00;99.90
19829;DHT22;10075;50.924;4.396;2022-10-31T10:05:18;17.20;99.90
19829;DHT22;10075;50.924;4.396;2022-10-31T10:07:54;17.30;99.90
19829;DHT22;10075;50.924;4.396;2022-10-31T10:10:26;17.40;99.90
19829;DHT22;10075;50.924;4.396;2022-10-31T10:13:12;17.50;99.90
19829;DHT22;10075;50.924;4.396;2022-10-31T10:16:00;17.50;99.90
19829;DHT22;10075;50.924;4.396;2022-10-31T10:18:38;17.60;99.90
19829;DHT22;10075;50.924;4.396;2022-10-31T10:21:19;17.70;99.90
19829;DHT22;10075;50.924;4.396;2022-10-31T10:23:57;17.70;99.90
19829;DHT22;10075;50.924;4.396;2022-10-31T10:26:37;17.80;99.90
19829;DHT22;10075;50.924;4.396;2022-10-31T10:29:18;17.80;99.90
19829;DHT22;10075;50.924;4.396;2022-10-31T10:31:49;17.90;99.90
19829;DHT22;10075;50.924;4.396;2022-10-31T10:34:22;18.00;99.90
19829;DHT22;10075;50.924;4.396;2022-10-31T10:36:53;18.10;99.90
19829;DHT22;10075;50.924;4.396;2022-10-31T10:39:24;18.20;99.90
19829;DHT22;10075;50.924;4.396;2022-10-31T10:41:52;18.30;99.90
19829;DHT22;10075;50.924;4.396;2022-10-31T10:44:37;18.30;99.90
19829;DHT22;10075;50.924;4.396;2022-10-31T10:47:22;18.30;99.90
19829;DHT22;10075;50.924;4.396;2022-10-31T10:50:12;18.30;99.90
19829;DHT22;10075;50.924;4.396;2022-10-31T10:52:46;18.20;99.90
19829;DHT22;10075;50.924;4.396;2022-10-31T10:55:25;18.20;99.90
19829;DHT22;10075;50.924;4.396;2022-10-31T10:57:58;18.20;99.90
19829;DHT22;10075;50.924;4.396;2022-10-31T11:00:27;18.30;99.90
19829;DHT22;10075;50.924;4.396;2022-10-31T11:02:56;18.30;99.90
19829;DHT22;10075;50.924;4.396;2022-10-31T11:05:33;18.30;99.90
19829;DHT22;10075;50.924;4.396;2022-10-31T11:08:01;18.40;99.90
19829;DHT22;10075;50.924;4.396;2022-10-31T11:10:28;18.60;99.90
19829;DHT22;10075;50.924;4.396;2022-10-31T11:13:03;18.60;99.90
19829;DHT22;10075;50.924;4.396;2022-10-31T11:15:33;18.60;99.90
19829;DHT22;10075;50.924;4.396;2022-10-31T11:18:01;18.70;99.90
19829;DHT22;10075;50.924;4.396;2022-10-31T11:20:33;18.70;99.90
19829;DHT22;10075;50.924;4.396;2022-10-31T11:23:14;18.70;99.90
19829;DHT22;10075;50.924;4.396;2022-10-31T11:25:48;18.80;99.90
19829;DHT22;10075;50.924;4.396;2022-10-31T11:28:16;18.80;99.90
19829;DHT22;10075;50.924;4.396;2022-10-31T11:30:46;18.90;99.90
19829;DHT22;10075;50.924;4.396;2022-10-31T11:33:19;19.10;99.90
19829;DHT22;10075;50.924;4.396;2022-10-31T11:35:50;19.10;99.90
19829;DHT22;10075;50.924;4.396;2022-10-31T11:38:20;19.10;99.90
19829;DHT22;10075;50.924;4.396;2022-10-31T11:40:57;19.20;99.90
19829;DHT22;10075;50.924;4.396;2022-10-31T11:43:25;19.20;99.90
19829;DHT22;10075;50.924;4.396;2022-10-31T11:45:53;19.20;99.90
19829;DHT22;10075;50.924;4.396;2022-10-31T11:48:23;19.20;99.90
19829;DHT22;10075;50.924;4.396;2022-10-31T11:50:55;19.30;99.90
19829;DHT22;10075;50.924;4.396;2022-10-31T11:53:26;19.20;99.90
19829;DHT22;10075;50.924;4.396;2022-10-31T11:56:03;19.20;99.90
19829;DHT22;10075;50.924;4.396;2022-10-31T11:58:31;19.30;99.90
19829;DHT22;10075;50.924;4.396;2022-10-31T12:00:59;19.30;99.90
19829;DHT22;10075;50.924;4.396;2022-10-31T12:03:51;19.40;99.90
19829;DHT22;10075;50.924;4.396;2022-10-31T12:06:24;19.40;99.90
19829;DHT22;10075;50.924;4.396;2022-10-31T12:08:55;19.50;99.90
19829;DHT22;10075;50.924;4.396;2022-10-31T12:11:41;19.60;99.90
19829;DHT22;10075;50.924;4.396;2022-10-31T12:14:25;19.70;99.90
19829;DHT22;10075;50.924;4.396;2022-10-31T12:16:57;19.70;99.90
19829;DHT22;10075;50.924;4.396;2022-10-31T12:19:34;19.80;99.90
19829;DHT22;10075;50.924;4.396;2022-10-31T12:22:14;20.00;99.90
19829;DHT22;10075;50.924;4.396;2022-10-31T12:28:00;20.30;99.90
19829;DHT22;10075;50.924;4.396;2022-10-31T12:30:40;20.40;99.90
19829;DHT22;10075;50.924;4.396;2022-10-31T12:33:21;20.60;99.90
19829;DHT22;10075;50.924;4.396;2022-10-31T12:35:58;20.70;99.90
19829;DHT22;10075;50.924;4.396;2022-10-31T12:38:40;20.70;99.90
19829;DHT22;10075;50.924;4.396;2022-10-31T12:41:24;20.80;99.90
19829;DHT22;10075;50.924;4.396;2022-10-31T12:44:00;20.90;99.90
19829;DHT22;10075;50.924;4.396;2022-10-31T12:46:44;20.90;99.90
19829;DHT22;10075;50.924;4.396;2022-10-31T12:49:46;20.90;99.90
19829;DHT22;10075;50.924;4.396;2022-10-31T12:52:27;21.00;99.90
19829;DHT22;10075;50.924;4.396;2022-10-31T12:55:09;21.00;99.90
19829;DHT22;10075;50.924;4.396;2022-10-31T12:57:41;20.90;99.90
19829;DHT22;10075;50.924;4.396;2022-10-31T13:00:13;20.80;99.90
19829;DHT22;10075;50.924;4.396;2022-10-31T13:02:46;20.70;99.90
19829;DHT22;10075;50.924;4.396;2022-10-31T13:05:19;20.60;99.90
19829;DHT22;10075;50.924;4.396;2022-10-31T13:07:52;20.70;99.90
19829;DHT22;10075;50.924;4.396;2022-10-31T13:10:26;20.80;99.90
19829;DHT22;10075;50.924;4.396;2022-10-31T13:13:02;20.80;99.90
19829;DHT22;10075;50.924;4.396;2022-10-31T13:15:35;20.80;99.90
19829;DHT22;10075;50.924;4.396;2022-10-31T13:18:12;20.70;99.90
19829;DHT22;10075;50.924;4.396;2022-10-31T13:20:43;20.60;99.90
19829;DHT22;10075;50.924;4.396;2022-10-31T13:23:23;20.70;99.90
19829;DHT22;10075;50.924;4.396;2022-10-31T13:25:56;20.60;99.90
19829;DHT22;10075;50.924;4.396;2022-10-31T13:28:31;20.50;99.90
19829;DHT22;10075;50.924;4.396;2022-10-31T13:31:01;20.60;99.90
19829;DHT22;10075;50.924;4.396;2022-10-31T13:33:31;20.70;99.90
19829;DHT22;10075;50.924;4.396;2022-10-31T13:36:10;20.50;99.90
19829;DHT22;10075;50.924;4.396;2022-10-31T13:38:51;20.60;99.90
19829;DHT22;10075;50.924;4.396;2022-10-31T13:41:31;20.70;99.90
19829;DHT22;10075;50.924;4.396;2022-10-31T13:44:05;20.70;99.90
19829;DHT22;10075;50.924;4.396;2022-10-31T13:46:37;20.70;99.90
19829;DHT22;10075;50.924;4.396;2022-10-31T13:49:18;20.60;99.90
19829;DHT22;10075;50.924;4.396;2022-10-31T13:51:48;20.50;99.90
19829;DHT22;10075;50.924;4.396;2022-10-31T13:54:22;20.60;99.90
19829;DHT22;10075;50.924;4.396;2022-10-31T13:56:51;20.70;99.90
19829;DHT22;10075;50.924;4.396;2022-10-31T13:59:21;20.60;99.90
19829;DHT22;10075;50.924;4.396;2022-10-31T14:01:51;20.50;99.90
19829;DHT22;10075;50.924;4.396;2022-10-31T14:04:21;20.50;99.90
19829;DHT22;10075;50.924;4.396;2022-10-31T14:06:58;20.50;99.90
19829;DHT22;10075;50.924;4.396;2022-10-31T14:09:33;20.50;99.90
19829;DHT22;10075;50.924;4.396;2022-10-31T14:12:06;20.40;99.90
19829;DHT22;10075;50.924;4.396;2022-10-31T14:14:41;20.40;99.90
19829;DHT22;10075;50.924;4.396;2022-10-31T14:17:17;20.40;99.90
19829;DHT22;10075;50.924;4.396;2022-10-31T14:20:00;20.40;99.90
19829;DHT22;10075;50.924;4.396;2022-10-31T14:22:31;20.40;99.90
19829;DHT22;10075;50.924;4.396;2022-10-31T14:24:59;20.50;99.90
19829;DHT22;10075;50.924;4.396;2022-10-31T14:27:51;20.60;99.90
19829;DHT22;10075;50.924;4.396;2022-10-31T14:30:20;20.70;99.90
19829;DHT22;10075;50.924;4.396;2022-10-31T14:32:51;20.60;99.90
19829;DHT22;10075;50.924;4.396;2022-10-31T14:35:20;20.70;99.90
19829;DHT22;10075;50.924;4.396;2022-10-31T14:40:59;20.50;99.90
19829;DHT22;10075;50.924;4.396;2022-10-31T14:43:55;20.60;99.90
19829;DHT22;10075;50.924;4.396;2022-10-31T14:46:35;20.40;99.90
19829;DHT22;10075;50.924;4.396;2022-10-31T14:49:19;20.40;99.90
19829;DHT22;10075;50.924;4.396;2022-10-31T14:51:50;20.40;99.90
19829;DHT22;10075;50.924;4.396;2022-10-31T14:54:22;20.40;99.90
19829;DHT22;10075;50.924;4.396;2022-10-31T14:56:53;20.40;99.90
19829;DHT22;10075;50.924;4.396;2022-10-31T14:59:26;20.40;99.90
19829;DHT22;10075;50.924;4.396;2022-10-31T15:01:57;20.40;99.90
19829;DHT22;10075;50.924;4.396;2022-10-31T15:04:27;20.30;99.90
19829;DHT22;10075;50.924;4.396;2022-10-31T15:07:02;20.30;99.90
19829;DHT22;10075;50.924;4.396;2022-10-31T15:09:32;20.30;99.90
19829;DHT22;10075;50.924;4.396;2022-10-31T15:12:00;20.30;99.90
19829;DHT22;10075;50.924;4.396;2022-10-31T15:14:30;20.40;99.90
19829;DHT22;10075;50.924;4.396;2022-10-31T15:16:58;20.30;99.90
19829;DHT22;10075;50.924;4.396;2022-10-31T15:19:30;20.30;99.90
19829;DHT22;10075;50.924;4.396;2022-10-31T15:21:58;20.30;99.90
19829;DHT22;10075;50.924;4.396;2022-10-31T15:24:30;20.10;99.90
19829;DHT22;10075;50.924;4.396;2022-10-31T15:26:59;20.00;99.90
19829;DHT22;10075;50.924;4.396;2022-10-31T15:29:28;19.80;99.90
19829;DHT22;10075;50.924;4.396;2022-10-31T15:31:56;19.80;99.90
19829;DHT22;10075;50.924;4.396;2022-10-31T15:34:29;19.70;99.90
19829;DHT22;10075;50.924;4.396;2022-10-31T15:36:59;19.60;99.90
19829;DHT22;10075;50.924;4.396;2022-10-31T15:39:26;19.60;99.90
19829;DHT22;10075;50.924;4.396;2022-10-31T15:41:55;19.50;99.90
19829;DHT22;10075;50.924;4.396;2022-10-31T15:44:26;19.40;99.90
19829;DHT22;10075;50.924;4.396;2022-10-31T15:47:00;19.40;99.90
19829;DHT22;10075;50.924;4.396;2022-10-31T15:49:34;19.30;99.90
19829;DHT22;10075;50.924;4.396;2022-10-31T15:52:13;19.30;99.90
19829;DHT22;10075;50.924;4.396;2022-10-31T15:54:46;19.30;99.90
19829;DHT22;10075;50.924;4.396;2022-10-31T15:57:14;19.10;99.90
19829;DHT22;10075;50.924;4.396;2022-10-31T15:59:45;19.00;99.90
19829;DHT22;10075;50.924;4.396;2022-10-31T16:02:17;18.90;99.90
19829;DHT22;10075;50.924;4.396;2022-10-31T16:04:49;18.70;99.90
19829;DHT22;10075;50.924;4.396;2022-10-31T16:07:18;18.60;99.90